Time;durP1;ratioP1;P1;durP2;ratioP2;P2;SDS_P1;SDS_P2;PMS_P1;PMS_P2;Temp;Humidity;BMP_temperature;BMP_pressure;BME280_temperature;BME280_humidity;BME280_pressure;Samples;Min_cycle;Max_cycle;Signal;HPM_P1;HPM_P2
2024/03/04 00:00:59;;;;;;;19.08;8.50;;;;;;;8.84;61.96;98771.56;10435160;28;20064;-62
2024/03/04 00:06:04;;;;;;;17.35;8.43;;;;;;;8.91;61.90;98777.16;10430685;28;20084;-61
2024/03/04 00:11:07;;;;;;;22.17;9.10;;;;;;;8.98;62.24;98782.75;10433706;28;20057;-61
2024/03/04 00:16:10;;;;;;;19.83;9.15;;;;;;;9.10;62.07;98782.72;10435294;28;20053;-61
2024/03/04 00:21:12;;;;;;;23.33;10.70;;;;;;;9.14;62.35;98793.75;10432417;28;20447;-62
2024/03/04 00:26:14;;;;;;;21.23;10.70;;;;;;;9.24;62.26;98795.59;10466484;28;20045;-62
2024/03/04 00:31:16;;;;;;;24.15;11.23;;;;;;;9.40;61.95;98803.16;10434796;28;20041;-62
2024/03/04 00:36:22;;;;;;;19.60;10.27;;;;;;;9.57;61.58;98811.41;10433640;28;20999;-62
2024/03/04 00:41:25;;;;;;;22.73;11.50;;;;;;;9.54;61.69;98824.69;10433110;28;20048;-62
2024/03/04 00:46:27;;;;;;;25.52;13.35;;;;;;;9.56;61.88;98822.78;10433997;28;20156;-62
2024/03/04 00:51:29;;;;;;;23.30;12.55;;;;;;;9.62;61.77;98827.59;10433513;28;20044;-63
2024/03/04 00:56:31;;;;;;;24.38;11.13;;;;;;;9.77;61.63;98832.66;10433085;28;21269;-63
2024/03/04 01:01:34;;;;;;;26.77;11.63;;;;;;;9.73;61.67;98841.66;10465638;28;20052;-63
2024/03/04 01:06:38;;;;;;;24.13;11.10;;;;;;;9.71;61.52;98849.59;10432838;28;20037;-62
2024/03/04 01:11:40;;;;;;;26.85;12.57;;;;;;;9.79;61.51;98855.09;10430827;28;20068;-62
2024/03/04 01:16:49;;;;;;;27.20;12.43;;;;;;;9.81;61.52;98862.81;10432836;28;20049;-64
2024/03/04 01:21:51;;;;;;;24.45;13.25;;;;;;;9.78;61.57;98866.50;10431355;28;20041;-62
2024/03/04 01:26:53;;;;;;;28.23;13.48;;;;;;;9.72;61.74;98879.16;10432836;28;20044;-62
2024/03/04 01:31:55;;;;;;;27.70;13.18;;;;;;;9.88;61.44;98895.34;10432218;28;20045;-62
2024/03/04 01:36:57;;;;;;;29.10;15.07;;;;;;;9.66;61.80;98901.31;10430951;28;20036;-62
2024/03/04 01:42:00;;;;;;;30.27;13.00;;;;;;;9.61;62.08;98908.59;10433119;28;20827;-62
2024/03/04 01:47:08;;;;;;;33.30;15.07;;;;;;;9.50;62.71;98911.97;10431415;28;20521;-62
2024/03/04 01:52:11;;;;;;;24.50;12.75;;;;;;;9.55;62.21;98922.09;10432048;28;20053;-62
2024/03/04 01:57:17;;;;;;;26.83;12.77;;;;;;;9.40;62.68;98929.22;10431031;28;20045;-62
2024/03/04 02:02:19;;;;;;;26.63;12.13;;;;;;;9.56;62.06;98942.88;10427387;28;20123;-62
2024/03/04 02:07:22;;;;;;;29.13;12.75;;;;;;;9.33;62.46;98948.06;10426990;28;20049;-62
2024/03/04 02:12:24;;;;;;;24.23;11.50;;;;;;;9.49;61.94;98946.03;10427993;28;20136;-62
2024/03/04 02:17:33;;;;;;;27.20;11.57;;;;;;;9.31;62.52;98952.53;10427394;28;20044;-62
2024/03/04 02:22:35;;;;;;;25.88;12.43;;;;;;;9.24;62.65;98962.56;10426350;28;20072;-62
2024/03/04 02:27:38;;;;;;;24.10;12.05;;;;;;;9.22;62.77;98967.06;10427623;28;20037;-62
2024/03/04 02:32:41;;;;;;;29.02;12.45;;;;;;;9.11;62.98;98959.16;10425289;28;20041;-62
2024/03/04 02:37:44;;;;;;;28.00;12.32;;;;;;;9.18;62.84;98968.22;10427102;28;20049;-62
2024/03/04 02:42:47;;;;;;;26.23;11.65;;;;;;;9.16;62.84;98966.63;10431043;28;20045;-62
2024/03/04 02:47:49;;;;;;;25.70;12.25;;;;;;;9.15;62.71;98984.09;10432765;28;20044;-61
2024/03/04 02:52:51;;;;;;;24.92;12.00;;;;;;;9.12;63.04;98988.66;10449117;28;20056;-62
2024/03/04 02:57:53;;;;;;;26.83;10.98;;;;;;;9.10;62.97;98998.34;10434392;28;20079;-62
2024/03/04 03:02:56;;;;;;;25.83;10.85;;;;;;;9.10;62.81;99001.81;10465000;28;20052;-62
2024/03/04 03:07:58;;;;;;;26.08;11.43;;;;;;;9.17;62.57;99004.84;10433729;28;20056;-62
2024/03/04 03:13:00;;;;;;;21.00;10.40;;;;;;;9.20;62.46;99010.69;10433303;28;20091;-62
2024/03/04 03:18:02;;;;;;;27.33;11.32;;;;;;;8.92;63.29;99013.50;10433449;28;20055;-62
2024/03/04 03:23:04;;;;;;;23.60;10.65;;;;;;;8.81;63.81;99019.44;10431198;28;20170;-62
2024/03/04 03:28:06;;;;;;;23.10;11.30;;;;;;;8.90;63.18;99025.81;10431982;28;20041;-62
2024/03/04 03:33:11;;;;;;;26.13;10.45;;;;;;;8.92;63.07;99020.47;10430116;28;20139;-62
2024/03/04 03:38:13;;;;;;;19.58;9.07;;;;;;;8.90;63.39;99035.38;10464165;28;20057;-62
2024/03/04 03:43:17;;;;;;;20.55;9.27;;;;;;;8.84;63.20;99027.06;10414429;28;20129;-62
2024/03/04 03:48:19;;;;;;;22.75;9.30;;;;;;;8.92;62.97;99036.13;10431199;28;20052;-63
2024/03/04 03:53:22;;;;;;;24.35;10.20;;;;;;;8.79;63.31;99049.16;10431262;28;20069;-61
2024/03/04 03:58:25;;;;;;;18.63;8.45;;;;;;;8.96;62.86;99061.06;10430108;28;20045;-62
2024/03/04 04:03:28;;;;;;;19.83;9.43;;;;;;;9.02;62.81;99074.53;10430045;28;20041;-62
2024/03/04 04:08:30;;;;;;;17.23;8.98;;;;;;;8.99;62.95;99061.72;10413387;28;20045;-63
2024/03/04 04:13:32;;;;;;;19.00;8.52;;;;;;;8.98;63.36;99067.00;10430337;28;20045;-61
2024/03/04 04:18:34;;;;;;;19.98;8.95;;;;;;;8.92;63.49;99070.03;10430945;28;20037;-62
2024/03/04 04:23:37;;;;;;;17.65;7.88;;;;;;;8.87;63.45;99082.53;10430937;28;20491;-62
2024/03/04 04:28:42;;;;;;;14.90;7.60;;;;;;;8.89;63.46;99089.34;10429443;28;20579;-62
2024/03/04 04:33:45;;;;;;;14.73;7.32;;;;;;;8.78;63.48;99089.19;10428090;28;20472;-62
2024/03/04 04:38:47;;;;;;;14.27;7.30;;;;;;;8.73;63.72;99101.69;10430185;28;20045;-62
2024/03/04 04:43:49;;;;;;;17.88;7.60;;;;;;;8.74;63.70;99103.38;10428709;28;20041;-62
2024/03/04 04:48:51;;;;;;;17.85;7.30;;;;;;;8.52;64.34;99108.31;10429324;28;20126;-62
2024/03/04 04:53:53;;;;;;;17.80;7.72;;;;;;;8.55;64.48;99102.88;10428478;28;20130;-62
2024/03/04 04:58:55;;;;;;;18.80;8.50;;;;;;;8.42;64.94;99113.28;10429070;28;20119;-62
2024/03/04 05:03:57;;;;;;;17.42;7.40;;;;;;;8.34;65.47;99109.47;10427653;28;20131;-62
2024/03/04 05:09:19;;;;;;;16.45;7.78;;;;;;;8.41;64.65;99121.16;10428993;28;20157;-63
2024/03/04 05:14:21;;;;;;;17.08;8.10;;;;;;;8.31;65.05;99120.06;10429245;28;20041;-61
2024/03/04 05:19:27;;;;;;;17.23;8.77;;;;;;;8.16;65.75;99136.69;10433169;28;20179;-63
2024/03/04 05:24:29;;;;;;;21.80;8.23;;;;;;;8.26;65.32;99133.38;10432249;28;20046;-63
2024/03/04 05:29:31;;;;;;;15.45;7.63;;;;;;;8.26;65.66;99150.81;10432913;28;20823;-62
2024/03/04 05:34:34;;;;;;;19.23;7.40;;;;;;;8.18;65.55;99148.66;10431186;28;20056;-62
2024/03/04 05:39:36;;;;;;;13.82;7.32;;;;;;;8.20;65.57;99151.19;10432636;28;20965;-62
2024/03/04 05:44:38;;;;;;;17.05;7.85;;;;;;;8.24;65.41;99163.91;10431167;28;20126;-62
2024/03/04 05:49:40;;;;;;;14.35;6.43;;;;;;;8.33;65.25;99170.31;10429960;28;20510;-62
2024/03/04 05:54:42;;;;;;;14.75;7.13;;;;;;;8.36;65.05;99175.34;10465065;28;20592;-62
2024/03/04 05:59:45;;;;;;;13.20;6.45;;;;;;;8.37;65.02;99182.22;10430920;28;20068;-62
2024/03/04 06:04:47;;;;;;;15.63;6.68;;;;;;;8.28;65.18;99181.00;10432202;28;20077;-62
2024/03/04 06:09:49;;;;;;;15.45;6.35;;;;;;;8.36;64.96;99194.44;10431624;28;20049;-62
2024/03/04 06:14:51;;;;;;;16.27;6.63;;;;;;;8.33;64.96;99197.22;10432532;28;20102;-63
2024/03/04 06:19:53;;;;;;;13.02;6.10;;;;;;;8.42;64.76;99201.88;10440181;28;20055;-63
2024/03/04 06:24:55;;;;;;;14.52;6.10;;;;;;;8.33;65.19;99204.19;10439637;28;20044;-63
2024/03/04 06:29:57;;;;;;;11.70;5.57;;;;;;;8.45;64.63;99208.63;10439344;28;20064;-63
2024/03/04 06:34:59;;;;;;;12.52;6.13;;;;;;;8.39;64.87;99219.44;10439556;28;20044;-63
2024/03/04 06:40:02;;;;;;;12.27;5.78;;;;;;;8.37;64.85;99221.28;10438936;28;20053;-62
2024/03/04 06:45:05;;;;;;;17.10;7.25;;;;;;;8.23;65.20;99223.91;10470674;28;20037;-62
2024/03/04 06:50:07;;;;;;;14.13;6.70;;;;;;;8.31;65.04;99229.50;10438999;28;20565;-63
2024/03/04 06:55:09;;;;;;;13.65;6.68;;;;;;;8.41;64.95;99234.03;10437657;28;20045;-62
2024/03/04 07:00:13;;;;;;;12.80;6.40;;;;;;;8.40;64.91;99239.34;10437754;28;20079;-62
2024/03/04 07:05:15;;;;;;;15.65;6.32;;;;;;;8.42;64.75;99237.50;10438941;28;20064;-63
2024/03/04 07:10:18;;;;;;;13.50;6.57;;;;;;;8.39;64.84;99250.69;10435519;28;20068;-62
2024/03/04 07:15:20;;;;;;;14.63;6.45;;;;;;;8.40;64.83;99257.59;10437829;28;20175;-62
2024/03/04 07:20:22;;;;;;;14.30;7.15;;;;;;;8.47;64.65;99261.47;10437451;28;20081;-62
2024/03/04 07:25:24;;;;;;;14.80;7.30;;;;;;;8.47;64.61;99277.97;10436036;28;20398;-62
2024/03/04 07:30:26;;;;;;;17.02;7.10;;;;;;;8.56;64.53;99281.78;10435002;28;20041;-62
2024/03/04 07:35:28;;;;;;;15.57;7.05;;;;;;;8.69;64.28;99282.69;10437076;28;20136;-62
2024/03/04 07:40:30;;;;;;;18.35;7.60;;;;;;;8.74;64.28;99288.47;10436745;28;20059;-62
2024/03/04 07:45:33;;;;;;;17.58;7.70;;;;;;;8.65;64.38;99295.06;10437078;28;20056;-62
2024/03/04 07:50:35;;;;;;;14.88;7.93;;;;;;;8.73;64.27;99294.59;10436259;28;20080;-62
2024/03/04 07:55:37;;;;;;;15.35;7.80;;;;;;;8.74;64.16;99304.94;10436629;28;20064;-62
2024/03/04 08:00:39;;;;;;;13.93;7.50;;;;;;;8.83;64.20;99311.34;10436152;28;20071;-62
2024/03/04 08:05:43;;;;;;;16.02;8.15;;;;;;;8.92;63.99;99315.97;10467918;28;20047;-62
2024/03/04 08:10:46;;;;;;;17.85;8.13;;;;;;;8.96;63.72;99320.06;10433682;28;20076;-63
2024/03/04 08:15:48;;;;;;;11.95;6.07;;;;;;;9.05;63.63;99327.34;10435543;28;20045;-62
2024/03/04 08:20:52;;;;;;;18.30;8.02;;;;;;;8.93;63.71;99322.88;10435198;28;20477;-62
2024/03/04 08:25:54;;;;;;;19.23;8.27;;;;;;;8.95;63.72;99328.84;10434986;28;20045;-61
2024/03/04 08:30:57;;;;;;;20.20;7.78;;;;;;;9.15;63.41;99328.44;10434965;28;20041;-62
2024/03/04 08:35:59;;;;;;;13.70;6.95;;;;;;;9.22;63.11;99337.53;10410198;28;20596;-61
2024/03/04 08:41:03;;;;;;;15.48;7.40;;;;;;;9.32;62.98;99338.59;10411600;28;20057;-62
2024/03/04 08:46:05;;;;;;;17.70;7.07;;;;;;;9.24;63.00;99340.06;10427830;28;20056;-61
2024/03/04 08:51:07;;;;;;;13.82;7.10;;;;;;;9.25;62.93;99342.56;10429435;28;20049;-61
2024/03/04 08:56:09;;;;;;;14.93;7.68;;;;;;;9.21;62.82;99346.28;10427892;28;20053;-62
2024/03/04 09:01:11;;;;;;;14.15;6.72;;;;;;;9.28;62.86;99346.75;10428949;28;20052;-62
2024/03/04 09:06:17;;;;;;;13.00;6.45;;;;;;;9.26;62.67;99352.03;10428790;28;20041;-62
2024/03/04 09:11:21;;;;;;;15.70;6.68;;;;;;;9.29;62.75;99343.19;10429106;28;20071;-62
2024/03/04 09:16:23;;;;;;;14.88;6.68;;;;;;;9.35;62.61;99348.03;10428604;28;20132;-61
2024/03/04 09:21:25;;;;;;;15.30;7.13;;;;;;;9.18;62.92;99353.50;10428690;28;20060;-62
2024/03/04 09:26:27;;;;;;;14.80;7.05;;;;;;;9.21;62.84;99348.91;10426275;28;20132;-61
2024/03/04 09:31:30;;;;;;;12.57;6.43;;;;;;;9.18;62.75;99358.72;10428581;28;20072;-61
2024/03/04 09:36:32;;;;;;;19.00;6.43;;;;;;;9.25;62.66;99359.97;10427828;28;20048;-61
2024/03/04 09:41:38;;;;;;;15.13;7.13;;;;;;;9.29;62.41;99366.69;10426854;28;20049;-61
2024/03/04 09:46:41;;;;;;;14.07;6.82;;;;;;;9.35;62.31;99359.31;10427511;28;20158;-61
2024/03/04 09:51:45;;;;;;;12.15;6.10;;;;;;;9.33;62.14;99363.78;10415556;28;20069;-61
2024/03/04 09:56:47;;;;;;;10.52;5.85;;;;;;;9.53;62.21;99352.06;10436150;28;20045;-62
2024/03/04 10:01:50;;;;;;;14.95;6.45;;;;;;;10.00;61.20;99354.19;10434681;28;20944;-61
2024/03/04 10:06:52;;;;;;;14.02;5.25;;;;;;;10.12;60.18;99353.38;10430491;28;20048;-62
2024/03/04 10:11:54;;;;;;;10.35;5.28;;;;;;;10.35;60.17;99358.75;10434712;28;20151;-54
2024/03/04 10:16:57;;;;;;;10.02;4.63;;;;;;;10.61;59.57;99359.56;10433016;28;20044;-56
2024/03/04 10:21:59;;;;;;;9.18;4.78;;;;;;;10.34;58.98;99356.22;10434548;28;20797;-57
2024/03/04 10:27:02;;;;;;;8.43;4.15;;;;;;;10.44;59.19;99367.72;10450497;28;20638;-58
2024/03/04 10:32:05;;;;;;;8.73;4.38;;;;;;;10.74;58.60;99367.41;10434700;28;20053;-58
2024/03/04 10:37:07;;;;;;;12.80;5.35;;;;;;;10.78;58.56;99369.72;10434915;28;20060;-57
2024/03/04 10:42:12;;;;;;;14.43;5.45;;;;;;;10.76;58.57;99370.75;10432481;28;20045;-57
2024/03/04 10:47:14;;;;;;;12.07;5.25;;;;;;;10.80;58.26;99377.44;10395798;28;20047;-58
2024/03/04 10:52:18;;;;;;;11.98;6.20;;;;;;;10.71;58.24;99376.31;10433852;28;20123;-56
2024/03/04 10:57:26;;;;;;;12.55;5.15;;;;;;;10.40;58.51;99379.31;10414727;28;20129;-56
2024/03/04 11:02:58;;;;;;;9.52;4.85;;;;;;;10.52;57.88;99365.44;10465179;28;20041;-53
2024/03/04 11:08:15;;;;;;;11.65;6.05;;;;;;;10.63;58.21;99367.31;10427403;28;20103;-57
2024/03/04 11:13:32;;;;;;;12.40;6.10;;;;;;;10.69;58.37;99372.13;10432568;28;20520;-56
2024/03/04 11:19:19;;;;;;;9.43;4.63;;;;;;;10.66;57.53;99367.94;10430668;28;20420;-57
2024/03/04 11:24:23;;;;;;;11.77;5.68;;;;;;;10.64;58.16;99369.84;10427672;28;20048;-58
2024/03/04 11:29:26;;;;;;;9.85;5.45;;;;;;;10.75;58.07;99371.69;10462448;28;20037;-56
2024/03/04 11:34:29;;;;;;;10.18;5.13;;;;;;;10.71;57.94;99383.31;10430027;28;20405;-57
2024/03/04 11:39:31;;;;;;;8.93;4.97;;;;;;;10.76;57.73;99376.84;10433122;28;20143;-57
2024/03/04 11:44:33;;;;;;;11.85;5.07;;;;;;;10.65;58.01;99373.25;10426222;28;20094;-55
2024/03/04 11:49:47;;;;;;;9.63;4.90;;;;;;;10.68;57.77;99378.31;10425862;28;20071;-57
2024/03/04 11:54:50;;;;;;;11.82;5.70;;;;;;;10.69;57.81;99393.03;10425689;28;20048;-56
2024/03/04 12:00:09;;;;;;;12.65;5.75;;;;;;;10.82;57.18;99384.25;10429090;28;20586;-60
2024/03/04 12:05:12;;;;;;;11.68;4.75;;;;;;;10.71;57.80;99392.00;10428808;28;20463;-56
2024/03/04 12:10:15;;;;;;;15.30;5.72;;;;;;;10.52;58.14;99389.78;10423599;28;20080;-57
2024/03/04 12:15:19;;;;;;;11.23;5.47;;;;;;;10.59;58.00;99395.44;10422954;28;20040;-56
2024/03/04 12:20:21;;;;;;;11.75;6.53;;;;;;;10.47;58.44;99401.50;10460274;28;20049;-57
2024/03/04 12:25:27;;;;;;;15.00;6.20;;;;;;;10.40;58.48;99401.09;10418309;28;20052;-57
2024/03/04 12:30:30;;;;;;;13.70;6.80;;;;;;;10.28;58.77;99401.91;10427387;28;20094;-60
2024/03/04 12:35:33;;;;;;;13.35;6.18;;;;;;;10.36;58.56;99402.22;10428991;28;20497;-58
2024/03/04 12:40:36;;;;;;;11.25;5.93;;;;;;;10.31;58.74;99406.94;10426959;28;20130;-57
2024/03/04 12:45:38;;;;;;;13.32;6.75;;;;;;;10.45;58.69;99408.63;10425372;28;20043;-58
2024/03/04 12:50:43;;;;;;;13.27;6.32;;;;;;;10.52;58.67;99399.44;10424552;28;20144;-57
2024/03/04 12:55:47;;;;;;;14.40;6.65;;;;;;;10.44;58.62;99401.69;10427315;28;20059;-57
2024/03/04 13:00:50;;;;;;;14.98;6.32;;;;;;;10.44;58.78;99405.16;10428835;28;20135;-55
2024/03/04 13:05:52;;;;;;;15.52;6.15;;;;;;;10.17;59.32;99400.97;10428557;28;20493;-58
2024/03/04 13:10:54;;;;;;;14.93;6.90;;;;;;;10.14;59.53;99408.97;10422690;28;20524;-58
2024/03/04 13:15:57;;;;;;;13.05;6.03;;;;;;;9.98;60.07;99408.31;10416461;28;20089;-57
2024/03/04 13:21:02;;;;;;;16.05;6.22;;;;;;;9.91;60.34;99407.06;10422371;28;20048;-57
2024/03/04 13:26:05;;;;;;;14.77;6.82;;;;;;;9.93;60.37;99408.63;10425748;28;20087;-57
2024/03/04 13:31:07;;;;;;;12.85;6.65;;;;;;;9.73;60.61;99413.47;10430412;28;20640;-57
2024/03/04 13:36:09;;;;;;;15.65;7.00;;;;;;;9.90;60.44;99415.81;10428727;28;20045;-58
2024/03/04 13:41:12;;;;;;;16.50;6.90;;;;;;;9.91;60.31;99420.13;10425733;28;20053;-57
2024/03/04 13:46:15;;;;;;;14.23;6.40;;;;;;;9.96;60.17;99412.81;10424143;28;20164;-58
2024/03/04 13:51:17;;;;;;;17.98;7.22;;;;;;;9.88;60.31;99417.69;10429433;28;20041;-57
2024/03/04 13:56:20;;;;;;;16.70;6.55;;;;;;;9.87;60.41;99413.44;10430662;28;20053;-58
2024/03/04 14:01:23;;;;;;;15.50;6.50;;;;;;;9.98;60.32;99403.09;10430824;28;20081;-55
2024/03/04 14:06:27;;;;;;;14.40;6.55;;;;;;;9.95;60.33;99414.56;10431408;28;20069;-58
2024/03/04 14:11:29;;;;;;;8.90;5.43;;;;;;;9.61;60.83;99402.00;10429514;28;20069;-58
2024/03/04 14:16:32;;;;;;;12.25;5.82;;;;;;;9.78;60.63;99409.63;10430116;28;20131;-57
2024/03/04 14:21:34;;;;;;;10.95;5.20;;;;;;;9.77;60.46;99404.50;10431431;28;20092;-58
2024/03/04 14:26:37;;;;;;;9.25;5.18;;;;;;;9.92;60.14;99404.34;10431668;28;20037;-57
2024/03/04 14:31:39;;;;;;;12.38;5.43;;;;;;;9.71;60.35;99404.91;10431290;28;20056;-58
2024/03/04 14:36:41;;;;;;;8.57;4.70;;;;;;;9.75;60.10;99401.16;10432537;28;20057;-58
2024/03/04 14:41:43;;;;;;;9.70;3.95;;;;;;;9.68;60.24;99397.25;10437092;28;20520;-58
2024/03/04 14:46:45;;;;;;;9.13;4.13;;;;;;;9.69;60.36;99404.97;10438623;28;20120;-58
2024/03/04 14:51:47;;;;;;;8.38;4.25;;;;;;;9.68;60.20;99405.09;10436169;28;20053;-57
2024/03/04 14:56:50;;;;;;;8.68;4.38;;;;;;;9.62;60.24;99399.31;10433364;28;20052;-58
2024/03/04 15:01:52;;;;;;;9.65;4.25;;;;;;;9.74;60.22;99408.16;10461474;28;20865;-57
2024/03/04 15:06:54;;;;;;;8.48;3.90;;;;;;;9.72;60.14;99402.19;10431853;28;20052;-57
2024/03/04 15:11:56;;;;;;;8.85;4.80;;;;;;;9.75;60.01;99406.38;10433366;28;20089;-57
2024/03/04 15:16:58;;;;;;;9.10;3.60;;;;;;;9.57;60.46;99409.19;10447079;28;20048;-58
2024/03/04 15:22:01;;;;;;;7.18;4.10;;;;;;;9.56;60.34;99407.50;10431770;28;20045;-57
2024/03/04 15:27:04;;;;;;;10.30;3.90;;;;;;;9.58;60.33;99407.44;10431662;28;20048;-58
2024/03/04 15:32:06;;;;;;;8.25;3.83;;;;;;;9.45;60.61;99404.75;10432868;28;20075;-57
2024/03/04 15:37:10;;;;;;;8.68;3.80;;;;;;;9.44;60.54;99403.06;10433080;28;20041;-57
2024/03/04 15:42:13;;;;;;;8.07;4.10;;;;;;;9.49;60.43;99408.84;10431782;28;20067;-58
2024/03/04 15:47:16;;;;;;;7.82;4.45;;;;;;;9.43;60.43;99411.84;10430709;28;20098;-56
2024/03/04 15:52:18;;;;;;;7.72;4.05;;;;;;;9.50;60.44;99420.94;10431925;28;20045;-57
2024/03/04 15:57:20;;;;;;;8.05;4.63;;;;;;;9.62;60.14;99412.38;10430342;28;20045;-57
2024/03/04 16:02:22;;;;;;;8.70;4.15;;;;;;;9.61;59.97;99415.91;10432043;28;20049;-58
2024/03/04 16:07:24;;;;;;;7.97;4.15;;;;;;;9.47;60.46;99415.09;10429362;28;20033;-57
2024/03/04 16:12:28;;;;;;;10.57;4.75;;;;;;;9.38;60.39;99420.91;10426748;28;20037;-56
2024/03/04 16:17:30;;;;;;;9.90;4.50;;;;;;;9.26;60.43;99422.50;10429641;28;20056;-57
2024/03/04 16:22:34;;;;;;;11.20;4.90;;;;;;;9.41;60.36;99421.53;10425976;28;20049;-58
2024/03/04 16:27:38;;;;;;;8.15;3.90;;;;;;;9.43;60.07;99419.69;10425630;28;20037;-58
2024/03/04 16:32:43;;;;;;;8.10;3.83;;;;;;;9.41;59.97;99426.78;10429349;28;20451;-59
2024/03/04 16:37:45;;;;;;;9.00;4.75;;;;;;;9.33;59.96;99426.41;10427431;28;20049;-57
2024/03/04 16:42:47;;;;;;;7.30;3.78;;;;;;;9.40;59.90;99432.09;10429614;28;20102;-58
2024/03/04 16:47:49;;;;;;;8.13;4.07;;;;;;;9.44;59.66;99438.78;10428439;28;20092;-58
2024/03/04 16:52:54;;;;;;;9.40;4.68;;;;;;;9.44;59.63;99446.63;10428945;28;20052;-59
2024/03/04 16:57:56;;;;;;;8.00;4.72;;;;;;;9.31;59.90;99453.53;10428392;28;20219;-58
2024/03/04 17:02:58;;;;;;;7.97;3.92;;;;;;;9.26;59.97;99453.81;10427773;28;20048;-58
2024/03/04 17:08:05;;;;;;;8.27;4.20;;;;;;;9.24;60.12;99457.47;10442769;28;20057;-59
2024/03/04 17:13:09;;;;;;;9.43;4.50;;;;;;;9.03;60.60;99449.19;10428417;28;20051;-58
2024/03/04 17:18:11;;;;;;;10.13;5.07;;;;;;;9.08;60.40;99452.34;10427344;28;20393;-58
2024/03/04 17:23:14;;;;;;;8.05;4.40;;;;;;;9.18;60.25;99453.44;10427474;28;20266;-58
2024/03/04 17:28:17;;;;;;;10.77;5.45;;;;;;;9.10;60.38;99463.50;10428041;28;20045;-59
2024/03/04 17:33:21;;;;;;;12.02;4.60;;;;;;;9.01;60.63;99464.09;10428744;28;20075;-58
2024/03/04 17:38:23;;;;;;;14.70;6.05;;;;;;;9.02;60.45;99460.53;10428233;28;20043;-58
2024/03/04 17:43:25;;;;;;;11.88;5.53;;;;;;;8.80;60.79;99462.75;10427594;28;20065;-58
2024/03/04 17:48:27;;;;;;;11.30;5.07;;;;;;;8.83;60.85;99467.81;10426083;28;20203;-57
2024/03/04 17:53:32;;;;;;;12.40;4.80;;;;;;;8.84;61.17;99465.09;10426527;28;20052;-57
2024/03/04 17:58:35;;;;;;;11.88;5.60;;;;;;;8.79;61.03;99461.91;10426601;28;20056;-60
2024/03/04 18:03:37;;;;;;;15.18;6.35;;;;;;;8.83;61.02;99473.03;10427080;28;20692;-60
2024/03/04 18:08:40;;;;;;;12.23;5.30;;;;;;;8.96;60.88;99471.34;10425807;28;20044;-61
2024/03/04 18:13:42;;;;;;;13.90;5.60;;;;;;;8.87;60.75;99474.50;10432002;28;20044;-59
2024/03/04 18:18:45;;;;;;;17.48;7.05;;;;;;;8.72;61.30;99470.19;10435240;28;20404;-60
2024/03/04 18:23:48;;;;;;;13.52;7.07;;;;;;;8.69;61.29;99478.19;10399081;28;20578;-60
2024/03/04 18:28:52;;;;;;;12.95;6.60;;;;;;;8.76;61.19;99476.91;10431316;28;20053;-60
2024/03/04 18:33:55;;;;;;;16.33;6.55;;;;;;;8.89;61.11;99484.84;10432479;28;20171;-60
2024/03/04 18:38:59;;;;;;;16.13;6.72;;;;;;;8.92;60.85;99484.66;10432025;28;20552;-60
2024/03/04 18:44:02;;;;;;;14.82;6.15;;;;;;;8.94;60.79;99481.03;10431884;28;20094;-60
2024/03/04 18:49:05;;;;;;;15.93;6.90;;;;;;;8.88;60.78;99480.53;10428706;28;20049;-60
2024/03/04 18:54:07;;;;;;;15.02;6.82;;;;;;;8.85;60.88;99477.19;10430025;28;20477;-60
2024/03/04 18:59:09;;;;;;;14.82;7.43;;;;;;;8.94;60.67;99469.75;10430904;28;20500;-60
2024/03/04 19:04:11;;;;;;;14.20;6.78;;;;;;;8.95;60.68;99480.09;10431072;28;20057;-60
2024/03/04 19:09:14;;;;;;;15.00;6.35;;;;;;;8.85;60.83;99476.38;10430291;28;20513;-60
2024/03/04 19:14:16;;;;;;;16.30;7.10;;;;;;;8.79;60.90;99479.34;10431907;28;20298;-60
2024/03/04 19:19:18;;;;;;;17.63;6.72;;;;;;;8.91;60.65;99483.84;10428014;28;20114;-60
2024/03/04 19:24:20;;;;;;;16.85;7.53;;;;;;;8.89;60.71;99483.09;10430109;28;20188;-60
2024/03/04 19:29:23;;;;;;;16.58;6.93;;;;;;;8.81;60.81;99490.53;10432331;28;20049;-60
2024/03/04 19:34:26;;;;;;;16.88;7.45;;;;;;;8.65;61.07;99497.53;10432546;28;20041;-61
2024/03/04 19:39:28;;;;;;;16.02;7.20;;;;;;;8.61;61.23;99503.88;10463839;28;20044;-60
2024/03/04 19:44:31;;;;;;;17.33;9.18;;;;;;;8.59;61.31;99506.56;10398053;28;20073;-60
2024/03/04 19:49:33;;;;;;;20.73;8.13;;;;;;;8.57;61.28;99499.75;10430505;28;20094;-60
2024/03/04 19:54:35;;;;;;;15.63;7.78;;;;;;;8.59;61.24;99505.72;10428461;28;20044;-60
2024/03/04 19:59:40;;;;;;;17.45;8.23;;;;;;;8.63;61.27;99509.84;10428576;28;20128;-60
2024/03/04 20:04:43;;;;;;;18.02;8.27;;;;;;;8.63;61.22;99509.84;10428820;28;20106;-61
2024/03/04 20:09:45;;;;;;;21.90;8.68;;;;;;;8.69;61.06;99514.69;10428307;28;20064;-60
2024/03/04 20:14:47;;;;;;;30.88;13.70;;;;;;;8.75;61.18;99525.59;10429577;28;20689;-60
2024/03/04 20:19:50;;;;;;;18.23;9.35;;;;;;;8.75;61.06;99522.19;10428205;28;20048;-60
2024/03/04 20:24:53;;;;;;;20.55;8.20;;;;;;;8.69;61.16;99525.13;10428696;28;20052;-60
2024/03/04 20:29:55;;;;;;;19.58;9.25;;;;;;;8.73;60.99;99524.84;10430680;28;20045;-59
2024/03/04 20:34:57;;;;;;;18.15;8.10;;;;;;;8.69;60.91;99530.31;10432260;28;20052;-60
2024/03/04 20:39:59;;;;;;;16.98;8.07;;;;;;;8.76;60.89;99531.66;10425936;28;20053;-60
2024/03/04 20:45:02;;;;;;;21.77;9.07;;;;;;;8.72;60.93;99527.56;10431959;28;20049;-60
2024/03/04 20:50:06;;;;;;;21.38;9.25;;;;;;;8.66;60.93;99530.53;10433374;28;20067;-59
2024/03/04 20:55:10;;;;;;;20.05;8.63;;;;;;;8.80;60.87;99538.38;10432900;28;20144;-60
2024/03/04 21:00:15;;;;;;;22.15;8.30;;;;;;;8.74;60.95;99539.59;10463543;28;20190;-60
2024/03/04 21:05:23;;;;;;;17.10;8.30;;;;;;;8.79;60.90;99544.53;10432212;28;20139;-60
2024/03/04 21:10:29;;;;;;;16.35;7.18;;;;;;;8.89;60.75;99545.66;10428837;28;20219;-60
2024/03/04 21:15:32;;;;;;;18.35;8.43;;;;;;;8.92;60.61;99540.25;10432169;28;20048;-60
2024/03/04 21:20:35;;;;;;;18.38;7.57;;;;;;;8.95;60.59;99539.25;10431643;28;20372;-60
2024/03/04 21:25:38;;;;;;;17.27;7.57;;;;;;;8.94;60.61;99540.16;10432262;28;20049;-60
2024/03/04 21:30:43;;;;;;;16.15;7.85;;;;;;;8.92;60.57;99542.03;10432185;28;20041;-60
2024/03/04 21:35:45;;;;;;;16.77;7.65;;;;;;;8.89;60.64;99545.66;10432516;28;20048;-60
2024/03/04 21:40:47;;;;;;;15.40;7.15;;;;;;;8.81;60.61;99542.69;10425873;28;20637;-60
2024/03/04 21:45:51;;;;;;;22.45;9.07;;;;;;;8.74;60.83;99549.16;10434112;28;20139;-60
2024/03/04 21:50:53;;;;;;;19.88;8.32;;;;;;;8.65;60.92;99552.28;10439755;28;20719;-59
2024/03/04 21:55:56;;;;;;;18.20;8.18;;;;;;;8.52;61.21;99557.41;10438972;28;20045;-59
2024/03/04 22:00:58;;;;;;;21.48;8.95;;;;;;;8.38;61.55;99562.56;10436412;28;20447;-59
2024/03/04 22:06:01;;;;;;;21.90;8.10;;;;;;;8.27;61.85;99566.66;10437841;28;20433;-59
2024/03/04 22:11:04;;;;;;;20.88;8.75;;;;;;;8.22;61.97;99563.50;10435397;28;20052;-59
2024/03/04 22:16:10;;;;;;;21.45;9.25;;;;;;;8.20;62.14;99555.75;10438363;28;20049;-59
2024/03/04 22:21:12;;;;;;;19.17;9.00;;;;;;;8.24;62.08;99556.44;10438270;28;21451;-59
2024/03/04 22:26:14;;;;;;;20.52;9.32;;;;;;;8.09;62.33;99552.88;10454393;28;20070;-59
2024/03/04 22:31:16;;;;;;;19.98;8.02;;;;;;;8.18;62.21;99551.56;10436979;28;20575;-59
2024/03/04 22:36:19;;;;;;;21.98;8.48;;;;;;;8.35;62.04;99546.22;10467271;28;20041;-59
2024/03/04 22:41:23;;;;;;;20.77;9.23;;;;;;;8.43;61.89;99557.06;10435608;28;20354;-59
2024/03/04 22:46:25;;;;;;;23.25;9.77;;;;;;;8.48;61.67;99557.66;10437163;28;20049;-59
2024/03/04 22:51:27;;;;;;;22.05;9.20;;;;;;;8.47;61.84;99545.53;10437469;28;20076;-59
2024/03/04 22:56:29;;;;;;;23.35;9.63;;;;;;;8.58;61.58;99541.41;10435538;28;20064;-59
2024/03/04 23:01:31;;;;;;;24.15;9.73;;;;;;;8.66;61.45;99554.84;10435332;28;20072;-59
2024/03/04 23:06:34;;;;;;;29.50;10.60;;;;;;;8.73;61.34;99552.69;10437771;28;20053;-59
2024/03/04 23:11:36;;;;;;;20.88;9.10;;;;;;;8.68;61.24;99552.13;10436688;28;20049;-59
2024/03/04 23:16:38;;;;;;;18.92;8.85;;;;;;;8.62;61.38;99553.34;10436725;28;20253;-59
2024/03/04 23:21:45;;;;;;;25.70;9.68;;;;;;;8.57;61.52;99557.09;10436457;28;20041;-59
2024/03/04 23:26:47;;;;;;;18.25;8.93;;;;;;;8.56;61.37;99558.03;10437154;28;20099;-60